Terminal Aerodrome Forecast
Issued by NWS

Home | Current Version | Previous Version | Text Only | Print | Product List | Glossary Off
Versions: 1 2 3 4 5 6 7 8 9 10 11 12 13 14

000
FTUS43 KTOP 261700
TAFMHK
TAF
KMHK 261720Z 2618/2718 01009KT 5SM BR BKN006
     FM262000 03006KT 6SM BR OVC012
     FM270000 01006KT 4SM -RASN BR OVC009
     FM271000 32008KT P6SM BKN040=

USA.gov is the U.S. government's official web portal to all federal, state and local government web resources and services.